sensor_id;sensor_type;location;lat;lon;timestamp;pressure;altitude;pressure_sealevel;temperature;humidity
7888;BME280;3989;48.810;9.208;2022-11-06T00:00:06;99252.59;;;4.07;100.00
7888;BME280;3989;48.810;9.208;2022-11-06T00:02:33;99229.22;;;4.03;100.00
7888;BME280;3989;48.810;9.208;2022-11-06T00:04:59;99248.16;;;4.08;100.00
7888;BME280;3989;48.810;9.208;2022-11-06T00:07:40;99232.56;;;4.05;100.00
7888;BME280;3989;48.810;9.208;2022-11-06T00:10:07;99234.56;;;4.12;100.00
7888;BME280;3989;48.810;9.208;2022-11-06T00:12:34;99198.38;;;4.03;100.00
7888;BME280;3989;48.810;9.208;2022-11-06T00:15:02;99221.81;;;4.17;100.00
7888;BME280;3989;48.810;9.208;2022-11-06T00:17:29;99216.59;;;4.27;100.00
7888;BME280;3989;48.810;9.208;2022-11-06T00:19:55;99196.16;;;4.08;100.00
7888;BME280;3989;48.810;9.208;2022-11-06T00:22:22;99225.63;;;4.24;100.00
7888;BME280;3989;48.810;9.208;2022-11-06T00:24:48;99226.22;;;4.28;100.00
7888;BME280;3989;48.810;9.208;2022-11-06T00:27:15;99221.44;;;4.22;100.00
7888;BME280;3989;48.810;9.208;2022-11-06T00:29:41;99227.34;;;4.14;100.00
7888;BME280;3989;48.810;9.208;2022-11-06T00:32:09;99222.84;;;4.05;100.00
7888;BME280;3989;48.810;9.208;2022-11-06T00:34:36;99225.50;;;3.94;100.00
7888;BME280;3989;48.810;9.208;2022-11-06T00:37:02;99244.63;;;3.87;100.00
7888;BME280;3989;48.810;9.208;2022-11-06T00:39:29;99245.16;;;3.81;100.00
7888;BME280;3989;48.810;9.208;2022-11-06T00:41:56;99203.13;;;3.46;100.00
7888;BME280;3989;48.810;9.208;2022-11-06T00:44:22;99243.03;;;3.63;100.00
7888;BME280;3989;48.810;9.208;2022-11-06T00:46:49;99242.34;;;3.50;100.00
7888;BME280;3989;48.810;9.208;2022-11-06T00:49:17;99258.50;;;3.57;100.00
7888;BME280;3989;48.810;9.208;2022-11-06T00:51:44;99250.50;;;3.58;100.00
7888;BME280;3989;48.810;9.208;2022-11-06T00:54:11;99257.19;;;3.62;100.00
7888;BME280;3989;48.810;9.208;2022-11-06T00:56:38;99249.75;;;3.67;100.00
7888;BME280;3989;48.810;9.208;2022-11-06T00:59:07;99254.53;;;3.62;100.00
7888;BME280;3989;48.810;9.208;2022-11-06T01:01:35;99255.63;;;3.60;100.00
7888;BME280;3989;48.810;9.208;2022-11-06T01:04:06;99247.00;;;3.58;100.00
7888;BME280;3989;48.810;9.208;2022-11-06T01:06:36;99234.66;;;3.36;100.00
7888;BME280;3989;48.810;9.208;2022-11-06T01:09:04;99225.34;;;3.21;100.00
7888;BME280;3989;48.810;9.208;2022-11-06T01:11:33;99243.47;;;3.26;100.00
7888;BME280;3989;48.810;9.208;2022-11-06T01:14:01;99244.66;;;3.33;100.00
7888;BME280;3989;48.810;9.208;2022-11-06T01:16:28;99194.44;;;3.01;100.00
7888;BME280;3989;48.810;9.208;2022-11-06T01:18:56;99245.00;;;3.17;100.00
7888;BME280;3989;48.810;9.208;2022-11-06T01:21:24;99239.50;;;3.09;100.00
7888;BME280;3989;48.810;9.208;2022-11-06T01:23:54;99243.69;;;3.11;100.00
7888;BME280;3989;48.810;9.208;2022-11-06T01:26:21;99240.47;;;3.08;100.00
7888;BME280;3989;48.810;9.208;2022-11-06T01:28:48;99234.00;;;3.01;100.00
7888;BME280;3989;48.810;9.208;2022-11-06T01:31:17;99233.38;;;2.97;100.00
7888;BME280;3989;48.810;9.208;2022-11-06T01:33:44;99243.59;;;3.02;100.00
7888;BME280;3989;48.810;9.208;2022-11-06T01:36:13;99192.06;;;2.64;100.00
7888;BME280;3989;48.810;9.208;2022-11-06T01:38:40;99246.47;;;2.99;100.00
7888;BME280;3989;48.810;9.208;2022-11-06T01:41:10;99245.03;;;2.95;100.00
7888;BME280;3989;48.810;9.208;2022-11-06T01:43:46;99242.16;;;2.87;100.00
7888;BME280;3989;48.810;9.208;2022-11-06T01:46:13;99241.66;;;2.82;100.00
7888;BME280;3989;48.810;9.208;2022-11-06T01:48:42;99241.66;;;2.82;100.00
7888;BME280;3989;48.810;9.208;2022-11-06T01:51:10;99216.59;;;2.65;100.00
7888;BME280;3989;48.810;9.208;2022-11-06T01:53:38;99236.63;;;2.79;100.00
7888;BME280;3989;48.810;9.208;2022-11-06T01:56:08;99235.56;;;2.70;100.00
7888;BME280;3989;48.810;9.208;2022-11-06T01:58:38;99225.69;;;2.50;100.00
7888;BME280;3989;48.810;9.208;2022-11-06T02:01:06;99225.00;;;2.70;100.00
7888;BME280;3989;48.810;9.208;2022-11-06T02:03:34;99234.72;;;2.92;100.00
7888;BME280;3989;48.810;9.208;2022-11-06T02:06:01;99222.38;;;2.92;100.00
7888;BME280;3989;48.810;9.208;2022-11-06T02:08:29;99229.56;;;3.01;100.00
7888;BME280;3989;48.810;9.208;2022-11-06T02:10:56;99235.09;;;3.09;100.00
7888;BME280;3989;48.810;9.208;2022-11-06T02:13:43;99230.28;;;3.14;100.00
7888;BME280;3989;48.810;9.208;2022-11-06T02:16:19;99224.00;;;3.27;100.00
7888;BME280;3989;48.810;9.208;2022-11-06T02:19:01;99230.38;;;3.35;100.00
7888;BME280;3989;48.810;9.208;2022-11-06T02:21:53;99212.75;;;3.36;100.00
7888;BME280;3989;48.810;9.208;2022-11-06T02:24:53;99225.31;;;3.54;100.00
7888;BME280;3989;48.810;9.208;2022-11-06T02:27:22;99224.91;;;3.59;100.00
7888;BME280;3989;48.810;9.208;2022-11-06T02:29:54;99208.38;;;3.57;100.00
7888;BME280;3989;48.810;9.208;2022-11-06T02:32:27;99200.69;;;3.65;100.00
7888;BME280;3989;48.810;9.208;2022-11-06T02:34:58;99204.03;;;3.67;100.00
7888;BME280;3989;48.810;9.208;2022-11-06T02:37:28;99196.47;;;3.62;100.00
7888;BME280;3989;48.810;9.208;2022-11-06T02:39:59;99204.63;;;3.70;100.00
7888;BME280;3989;48.810;9.208;2022-11-06T02:42:30;99178.97;;;3.61;100.00
7888;BME280;3989;48.810;9.208;2022-11-06T02:44:59;99196.06;;;3.78;100.00
7888;BME280;3989;48.810;9.208;2022-11-06T02:47:28;99190.41;;;3.83;100.00
7888;BME280;3989;48.810;9.208;2022-11-06T02:50:03;99183.31;;;3.83;100.00
7888;BME280;3989;48.810;9.208;2022-11-06T02:52:33;99174.56;;;3.83;100.00
7888;BME280;3989;48.810;9.208;2022-11-06T02:55:08;99166.06;;;3.79;100.00
7888;BME280;3989;48.810;9.208;2022-11-06T02:57:40;99162.84;;;3.76;100.00
7888;BME280;3989;48.810;9.208;2022-11-06T03:00:10;99155.81;;;3.65;100.00
7888;BME280;3989;48.810;9.208;2022-11-06T03:02:41;99143.84;;;3.61;100.00
7888;BME280;3989;48.810;9.208;2022-11-06T03:05:13;99146.22;;;3.64;100.00
7888;BME280;3989;48.810;9.208;2022-11-06T03:07:46;99148.13;;;3.62;100.00
7888;BME280;3989;48.810;9.208;2022-11-06T03:10:13;99138.91;;;3.56;100.00
7888;BME280;3989;48.810;9.208;2022-11-06T03:12:49;99140.22;;;3.62;100.00
7888;BME280;3989;48.810;9.208;2022-11-06T03:15:25;99139.66;;;3.58;100.00
7888;BME280;3989;48.810;9.208;2022-11-06T03:17:58;99140.25;;;3.51;100.00
7888;BME280;3989;48.810;9.208;2022-11-06T03:20:30;99142.22;;;3.49;100.00
7888;BME280;3989;48.810;9.208;2022-11-06T03:23:05;99141.72;;;3.44;100.00
7888;BME280;3989;48.810;9.208;2022-11-06T03:25:42;99144.88;;;3.38;100.00
7888;BME280;3989;48.810;9.208;2022-11-06T03:28:13;99125.72;;;3.25;100.00
7888;BME280;3989;48.810;9.208;2022-11-06T03:30:49;99146.13;;;3.23;100.00
7888;BME280;3989;48.810;9.208;2022-11-06T03:33:21;99143.50;;;3.11;100.00
7888;BME280;3989;48.810;9.208;2022-11-06T03:35:51;99143.88;;;2.96;100.00
7888;BME280;3989;48.810;9.208;2022-11-06T03:38:24;99136.13;;;2.83;100.00
7888;BME280;3989;48.810;9.208;2022-11-06T03:40:56;99138.25;;;2.78;100.00
7888;BME280;3989;48.810;9.208;2022-11-06T03:43:27;99139.59;;;2.73;100.00
7888;BME280;3989;48.810;9.208;2022-11-06T03:45:56;99130.03;;;2.60;100.00
7888;BME280;3989;48.810;9.208;2022-11-06T03:48:29;99132.91;;;2.57;100.00
7888;BME280;3989;48.810;9.208;2022-11-06T03:50:59;99133.00;;;2.56;100.00
7888;BME280;3989;48.810;9.208;2022-11-06T03:53:30;99126.91;;;2.55;100.00
7888;BME280;3989;48.810;9.208;2022-11-06T03:56:03;99122.47;;;2.45;100.00
7888;BME280;3989;48.810;9.208;2022-11-06T03:58:35;99125.81;;;2.47;100.00
7888;BME280;3989;48.810;9.208;2022-11-06T04:01:05;99123.91;;;2.49;100.00
7888;BME280;3989;48.810;9.208;2022-11-06T04:03:35;99129.53;;;2.55;100.00
7888;BME280;3989;48.810;9.208;2022-11-06T04:06:07;99126.69;;;2.58;100.00
7888;BME280;3989;48.810;9.208;2022-11-06T04:08:36;99116.84;;;2.60;100.00
7888;BME280;3989;48.810;9.208;2022-11-06T04:11:23;99112.03;;;2.65;100.00
7888;BME280;3989;48.810;9.208;2022-11-06T04:14:13;99107.63;;;2.66;100.00
7888;BME280;3989;48.810;9.208;2022-11-06T04:16:44;99104.03;;;2.67;100.00
7888;BME280;3989;48.810;9.208;2022-11-06T04:19:14;99081.75;;;2.60;100.00
7888;BME280;3989;48.810;9.208;2022-11-06T04:21:55;99102.84;;;2.71;100.00
7888;BME280;3989;48.810;9.208;2022-11-06T04:24:31;99108.22;;;2.70;100.00
7888;BME280;3989;48.810;9.208;2022-11-06T04:27:25;99098.75;;;2.67;100.00
7888;BME280;3989;48.810;9.208;2022-11-06T04:30:07;99089.31;;;2.64;100.00
7888;BME280;3989;48.810;9.208;2022-11-06T04:32:42;99073.25;;;2.56;100.00
7888;BME280;3989;48.810;9.208;2022-11-06T04:35:16;99081.75;;;2.60;100.00
7888;BME280;3989;48.810;9.208;2022-11-06T04:37:51;99083.69;;;2.58;100.00
7888;BME280;3989;48.810;9.208;2022-11-06T04:40:23;99077.56;;;2.57;100.00
7888;BME280;3989;48.810;9.208;2022-11-06T04:42:55;99073.38;;;2.55;100.00
7888;BME280;3989;48.810;9.208;2022-11-06T04:45:28;99075.03;;;2.56;100.00
7888;BME280;3989;48.810;9.208;2022-11-06T04:47:57;99073.75;;;2.61;100.00
7888;BME280;3989;48.810;9.208;2022-11-06T04:50:25;99044.88;;;2.49;100.00
7888;BME280;3989;48.810;9.208;2022-11-06T04:52:55;99065.00;;;2.61;100.00
7888;BME280;3989;48.810;9.208;2022-11-06T04:55:21;99053.63;;;2.60;100.00
7888;BME280;3989;48.810;9.208;2022-11-06T04:57:48;99059.84;;;2.71;100.00
7888;BME280;3989;48.810;9.208;2022-11-06T05:00:15;99053.72;;;2.70;100.00
7888;BME280;3989;48.810;9.208;2022-11-06T05:02:43;99046.75;;;2.69;100.00
7888;BME280;3989;48.810;9.208;2022-11-06T05:05:10;99047.25;;;2.63;100.00
7888;BME280;3989;48.810;9.208;2022-11-06T05:07:37;99043.06;;;2.60;100.00
7888;BME280;3989;48.810;9.208;2022-11-06T05:10:04;99065.59;;;2.64;100.00
7888;BME280;3989;48.810;9.208;2022-11-06T05:12:31;99074.31;;;2.65;100.00
7888;BME280;3989;48.810;9.208;2022-11-06T05:14:57;99082.22;;;2.65;100.00
7888;BME280;3989;48.810;9.208;2022-11-06T05:17:24;99082.34;;;2.63;100.00
7888;BME280;3989;48.810;9.208;2022-11-06T05:19:52;99092.44;;;2.58;100.00
7888;BME280;3989;48.810;9.208;2022-11-06T05:22:18;99086.66;;;2.53;100.00
7888;BME280;3989;48.810;9.208;2022-11-06T05:25:03;99087.25;;;2.46;100.00
7888;BME280;3989;48.810;9.208;2022-11-06T05:27:29;99064.16;;;2.27;100.00
7888;BME280;3989;48.810;9.208;2022-11-06T05:29:56;99081.41;;;2.31;100.00
7888;BME280;3989;48.810;9.208;2022-11-06T05:32:22;99084.03;;;2.20;100.00
7888;BME280;3989;48.810;9.208;2022-11-06T05:34:49;99053.41;;;1.97;100.00
7888;BME280;3989;48.810;9.208;2022-11-06T05:37:17;99084.88;;;2.09;100.00
7888;BME280;3989;48.810;9.208;2022-11-06T05:39:43;99074.81;;;2.03;100.00
7888;BME280;3989;48.810;9.208;2022-11-06T05:42:10;99061.06;;;2.00;100.00
7888;BME280;3989;48.810;9.208;2022-11-06T05:44:37;99081.03;;;2.13;100.00
7888;BME280;3989;48.810;9.208;2022-11-06T05:47:03;99057.09;;;2.05;100.00
7888;BME280;3989;48.810;9.208;2022-11-06T05:49:30;99021.31;;;1.81;100.00
7888;BME280;3989;48.810;9.208;2022-11-06T05:51:56;99073.72;;;2.17;100.00
7888;BME280;3989;48.810;9.208;2022-11-06T05:54:24;99057.34;;;2.13;100.00
7888;BME280;3989;48.810;9.208;2022-11-06T05:56:51;99068.97;;;2.22;100.00
7888;BME280;3989;48.810;9.208;2022-11-06T05:59:17;99054.72;;;2.25;100.00
7888;BME280;3989;48.810;9.208;2022-11-06T06:01:44;99069.31;;;2.18;100.00
7888;BME280;3989;48.810;9.208;2022-11-06T06:04:10;99088.81;;;2.15;100.00
7888;BME280;3989;48.810;9.208;2022-11-06T06:06:37;99057.81;;;1.96;100.00
7888;BME280;3989;48.810;9.208;2022-11-06T06:09:04;99091.56;;;2.13;100.00
7888;BME280;3989;48.810;9.208;2022-11-06T06:11:32;99089.06;;;2.12;100.00
7888;BME280;3989;48.810;9.208;2022-11-06T06:13:59;99084.97;;;2.08;100.00
7888;BME280;3989;48.810;9.208;2022-11-06T06:16:26;99056.47;;;1.80;100.00
7888;BME280;3989;48.810;9.208;2022-11-06T06:18:52;99078.84;;;1.85;100.00
7888;BME280;3989;48.810;9.208;2022-11-06T06:21:19;99091.28;;;1.83;100.00
7888;BME280;3989;48.810;9.208;2022-11-06T06:23:45;99091.75;;;1.77;100.00
7888;BME280;3989;48.810;9.208;2022-11-06T06:26:12;99064.56;;;1.54;100.00
7888;BME280;3989;48.810;9.208;2022-11-06T06:28:40;99085.00;;;1.62;100.00
7888;BME280;3989;48.810;9.208;2022-11-06T06:31:06;99083.81;;;1.55;100.00
7888;BME280;3989;48.810;9.208;2022-11-06T06:33:34;99076.13;;;1.52;100.00
7888;BME280;3989;48.810;9.208;2022-11-06T06:36:02;99074.72;;;1.59;100.00
7888;BME280;3989;48.810;9.208;2022-11-06T06:38:29;99065.91;;;1.71;100.00
7888;BME280;3989;48.810;9.208;2022-11-06T06:40:59;99061.03;;;1.78;100.00
7888;BME280;3989;48.810;9.208;2022-11-06T06:43:26;99064.38;;;1.80;100.00
7888;BME280;3989;48.810;9.208;2022-11-06T06:45:56;99071.44;;;1.79;100.00
7888;BME280;3989;48.810;9.208;2022-11-06T06:48:23;99059.06;;;1.69;100.00
7888;BME280;3989;48.810;9.208;2022-11-06T06:50:49;99070.47;;;1.80;100.00
7888;BME280;3989;48.810;9.208;2022-11-06T06:53:16;99064.97;;;1.83;100.00
7888;BME280;3989;48.810;9.208;2022-11-06T06:55:42;99061.88;;;1.89;100.00
7888;BME280;3989;48.810;9.208;2022-11-06T06:58:09;99053.41;;;1.97;100.00
7888;BME280;3989;48.810;9.208;2022-11-06T07:00:36;99042.88;;;1.97;100.00
7888;BME280;3989;48.810;9.208;2022-11-06T07:03:03;99045.03;;;2.03;100.00
7888;BME280;3989;48.810;9.208;2022-11-06T07:05:30;99049.34;;;2.15;100.00
7888;BME280;3989;48.810;9.208;2022-11-06T07:07:57;99033.41;;;2.17;100.00
7888;BME280;3989;48.810;9.208;2022-11-06T07:10:23;99020.84;;;2.20;100.00
7888;BME280;3989;48.810;9.208;2022-11-06T07:12:50;98999.16;;;2.17;100.00
7888;BME280;3989;48.810;9.208;2022-11-06T07:15:17;98996.09;;;2.23;100.00
7888;BME280;3989;48.810;9.208;2022-11-06T07:17:43;99013.75;;;2.43;100.00
7888;BME280;3989;48.810;9.208;2022-11-06T07:20:11;99020.56;;;2.56;100.00
7888;BME280;3989;48.810;9.208;2022-11-06T07:22:38;99011.31;;;2.62;100.00
7888;BME280;3989;48.810;9.208;2022-11-06T07:25:05;99008.69;;;2.62;100.00
7888;BME280;3989;48.810;9.208;2022-11-06T07:27:32;99002.22;;;2.66;100.00
7888;BME280;3989;48.810;9.208;2022-11-06T07:29:58;98995.41;;;2.63;100.00
7888;BME280;3989;48.810;9.208;2022-11-06T07:32:25;98988.09;;;2.67;100.00
7888;BME280;3989;48.810;9.208;2022-11-06T07:34:52;98980.69;;;2.50;100.00
7888;BME280;3989;48.810;9.208;2022-11-06T07:37:20;98989.19;;;2.53;100.00
7888;BME280;3989;48.810;9.208;2022-11-06T07:39:46;98991.47;;;2.58;100.00
7888;BME280;3989;48.810;9.208;2022-11-06T07:42:13;98932.13;;;2.32;100.00
7888;BME280;3989;48.810;9.208;2022-11-06T07:44:39;98987.50;;;2.63;100.00
7888;BME280;3989;48.810;9.208;2022-11-06T07:47:06;98938.44;;;2.40;100.00
7888;BME280;3989;48.810;9.208;2022-11-06T07:49:32;98976.13;;;2.63;100.00
7888;BME280;3989;48.810;9.208;2022-11-06T07:51:59;98965.31;;;2.77;100.00
7888;BME280;3989;48.810;9.208;2022-11-06T07:54:27;98961.97;;;2.96;100.00
7888;BME280;3989;48.810;9.208;2022-11-06T07:56:53;98955.75;;;2.97;100.00
7888;BME280;3989;48.810;9.208;2022-11-06T07:59:20;98929.41;;;2.97;100.00
7888;BME280;3989;48.810;9.208;2022-11-06T08:01:46;98938.50;;;2.93;100.00
7888;BME280;3989;48.810;9.208;2022-11-06T08:04:13;98919.09;;;2.94;100.00
7888;BME280;3989;48.810;9.208;2022-11-06T08:06:39;98870.59;;;2.64;100.00
7888;BME280;3989;48.810;9.208;2022-11-06T08:09:07;98926.34;;;3.01;100.00
7888;BME280;3989;48.810;9.208;2022-11-06T08:11:35;98923.09;;;3.09;100.00
7888;BME280;3989;48.810;9.208;2022-11-06T08:14:01;98923.09;;;3.09;100.00
7888;BME280;3989;48.810;9.208;2022-11-06T08:16:28;98879.88;;;2.80;100.00
7888;BME280;3989;48.810;9.208;2022-11-06T08:18:55;98904.94;;;2.95;100.00
7888;BME280;3989;48.810;9.208;2022-11-06T08:21:21;98910.28;;;3.04;100.00
7888;BME280;3989;48.810;9.208;2022-11-06T08:23:48;98907.97;;;3.11;100.00
7888;BME280;3989;48.810;9.208;2022-11-06T08:26:15;98903.34;;;3.24;100.00
7888;BME280;3989;48.810;9.208;2022-11-06T08:28:43;98888.81;;;3.09;100.00
7888;BME280;3989;48.810;9.208;2022-11-06T08:31:10;98921.78;;;3.45;100.00
7888;BME280;3989;48.810;9.208;2022-11-06T08:33:37;98912.69;;;3.58;100.00
7888;BME280;3989;48.810;9.208;2022-11-06T08:36:06;98918.41;;;3.63;100.00
7888;BME280;3989;48.810;9.208;2022-11-06T08:38:33;98914.28;;;3.70;100.00
7888;BME280;3989;48.810;9.208;2022-11-06T08:41:03;98908.19;;;3.80;100.00
7888;BME280;3989;48.810;9.208;2022-11-06T08:43:30;98910.59;;;3.92;100.00
7888;BME280;3989;48.810;9.208;2022-11-06T08:45:58;98924.56;;;4.04;100.00
7888;BME280;3989;48.810;9.208;2022-11-06T08:48:25;98896.59;;;4.01;100.00
7888;BME280;3989;48.810;9.208;2022-11-06T08:50:52;98898.41;;;4.10;100.00
7888;BME280;3989;48.810;9.208;2022-11-06T08:53:18;98861.13;;;3.94;100.00
7888;BME280;3989;48.810;9.208;2022-11-06T08:55:45;98867.00;;;4.07;100.00
7888;BME280;3989;48.810;9.208;2022-11-06T08:58:11;98876.06;;;4.24;100.00
7888;BME280;3989;48.810;9.208;2022-11-06T09:00:38;98895.88;;;4.49;100.00
7888;BME280;3989;48.810;9.208;2022-11-06T09:03:09;98894.59;;;4.62;100.00
7888;BME280;3989;48.810;9.208;2022-11-06T09:05:38;98890.03;;;4.64;100.00
7888;BME280;3989;48.810;9.208;2022-11-06T09:08:05;98887.50;;;4.82;100.00
7888;BME280;3989;48.810;9.208;2022-11-06T09:10:33;98889.03;;;5.04;100.00
7888;BME280;3989;48.810;9.208;2022-11-06T09:12:59;98890.56;;;5.06;100.00
7888;BME280;3989;48.810;9.208;2022-11-06T09:15:26;98866.47;;;5.00;100.00
7888;BME280;3989;48.810;9.208;2022-11-06T09:17:53;98865.75;;;5.17;100.00
7888;BME280;3989;48.810;9.208;2022-11-06T09:20:22;98889.06;;;5.50;100.00
7888;BME280;3989;48.810;9.208;2022-11-06T09:22:50;98895.41;;;5.67;100.00
7888;BME280;3989;48.810;9.208;2022-11-06T09:25:18;98879.69;;;5.65;100.00
7888;BME280;3989;48.810;9.208;2022-11-06T09:27:46;98904.16;;;5.77;100.00
7888;BME280;3989;48.810;9.208;2022-11-06T09:30:15;98922.41;;;5.80;100.00
7888;BME280;3989;48.810;9.208;2022-11-06T09:32:46;98933.38;;;5.85;100.00
7888;BME280;3989;48.810;9.208;2022-11-06T09:35:13;98936.88;;;5.95;100.00
7888;BME280;3989;48.810;9.208;2022-11-06T09:37:40;98929.28;;;6.10;100.00
7888;BME280;3989;48.810;9.208;2022-11-06T09:40:17;98919.78;;;6.34;100.00
7888;BME280;3989;48.810;9.208;2022-11-06T09:42:52;98891.09;;;6.48;100.00
7888;BME280;3989;48.810;9.208;2022-11-06T09:45:23;98880.22;;;6.68;100.00
7888;BME280;3989;48.810;9.208;2022-11-06T09:47:57;98886.34;;;6.86;100.00
7888;BME280;3989;48.810;9.208;2022-11-06T09:50:28;98884.25;;;6.98;100.00
7888;BME280;3989;48.810;9.208;2022-11-06T09:52:59;98887.06;;;7.14;100.00
7888;BME280;3989;48.810;9.208;2022-11-06T09:55:32;98863.91;;;7.24;100.00
7888;BME280;3989;48.810;9.208;2022-11-06T09:58:02;98865.06;;;7.22;100.00
7888;BME280;3989;48.810;9.208;2022-11-06T10:00:31;98856.97;;;7.31;100.00
7888;BME280;3989;48.810;9.208;2022-11-06T10:03:02;98861.72;;;7.46;100.00
7888;BME280;3989;48.810;9.208;2022-11-06T10:05:32;98851.97;;;7.54;100.00
7888;BME280;3989;48.810;9.208;2022-11-06T10:08:03;98845.25;;;7.68;100.00
7888;BME280;3989;48.810;9.208;2022-11-06T10:10:39;98845.63;;;7.81;100.00
7888;BME280;3989;48.810;9.208;2022-11-06T10:13:21;98800.72;;;7.62;100.00
7888;BME280;3989;48.810;9.208;2022-11-06T10:15:55;98821.03;;;7.79;100.00
7888;BME280;3989;48.810;9.208;2022-11-06T10:18:36;98814.09;;;7.78;100.00
7888;BME280;3989;48.810;9.208;2022-11-06T10:21:09;98836.25;;;8.03;100.00
7888;BME280;3989;48.810;9.208;2022-11-06T10:23:43;98836.28;;;8.11;100.00
7888;BME280;3989;48.810;9.208;2022-11-06T10:26:14;98786.72;;;7.93;100.00
7888;BME280;3989;48.810;9.208;2022-11-06T10:29:08;98819.03;;;8.23;100.00
7888;BME280;3989;48.810;9.208;2022-11-06T10:31:42;98799.91;;;8.27;100.00
7888;BME280;3989;48.810;9.208;2022-11-06T10:34:13;98780.13;;;8.22;100.00
7888;BME280;3989;48.810;9.208;2022-11-06T10:36:45;98782.84;;;8.38;100.00
7888;BME280;3989;48.810;9.208;2022-11-06T10:39:17;98793.84;;;8.67;100.00
7888;BME280;3989;48.810;9.208;2022-11-06T10:41:48;98780.38;;;8.85;100.00
7888;BME280;3989;48.810;9.208;2022-11-06T10:44:21;98734.97;;;8.78;100.00
7888;BME280;3989;48.810;9.208;2022-11-06T10:46:52;98758.38;;;8.99;100.00
7888;BME280;3989;48.810;9.208;2022-11-06T10:49:32;98749.72;;;9.05;100.00
7888;BME280;3989;48.810;9.208;2022-11-06T10:52:12;98765.16;;;9.26;100.00
7888;BME280;3989;48.810;9.208;2022-11-06T10:54:53;98483.84;;;7.61;100.00
7888;BME280;3989;48.810;9.208;2022-11-06T10:57:29;98750.09;;;9.41;100.00
7888;BME280;3989;48.810;9.208;2022-11-06T11:00:01;98675.38;;;9.04;100.00
7888;BME280;3989;48.810;9.208;2022-11-06T11:02:32;98461.44;;;7.72;100.00
7888;BME280;3989;48.810;9.208;2022-11-06T11:04:59;98462.38;;;7.95;100.00
7888;BME280;3989;48.810;9.208;2022-11-06T11:07:30;98641.53;;;9.20;100.00
7888;BME280;3989;48.810;9.208;2022-11-06T11:10:25;98446.09;;;7.98;100.00
7888;BME280;3989;48.810;9.208;2022-11-06T11:12:53;98605.94;;;9.13;100.00
7888;BME280;3989;48.810;9.208;2022-11-06T11:15:23;98448.16;;;8.35;100.00
7888;BME280;3989;48.810;9.208;2022-11-06T11:18:06;98427.06;;;8.25;100.00
7888;BME280;3989;48.810;9.208;2022-11-06T11:20:35;98426.53;;;8.38;100.00
7888;BME280;3989;48.810;9.208;2022-11-06T11:23:13;98438.00;;;8.38;100.00
7888;BME280;3989;48.810;9.208;2022-11-06T11:25:45;98666.06;;;9.92;100.00
7888;BME280;3989;48.810;9.208;2022-11-06T11:28:21;98675.22;;;9.97;100.00
7888;BME280;3989;48.810;9.208;2022-11-06T11:30:57;98387.34;;;8.40;100.00
7888;BME280;3989;48.810;9.208;2022-11-06T11:33:30;98487.03;;;9.06;100.00
7888;BME280;3989;48.810;9.208;2022-11-06T11:36:00;98518.94;;;9.36;100.00
7888;BME280;3989;48.810;9.208;2022-11-06T11:38:36;98500.06;;;9.23;100.00
7888;BME280;3989;48.810;9.208;2022-11-06T11:41:11;98631.19;;;10.24;100.00
7888;BME280;3989;48.810;9.208;2022-11-06T11:43:38;98343.38;;;8.52;100.00
7888;BME280;3989;48.810;9.208;2022-11-06T11:46:25;98574.31;;;9.86;100.00
7888;BME280;3989;48.810;9.208;2022-11-06T11:48:55;98392.34;;;8.88;100.00
7888;BME280;3989;48.810;9.208;2022-11-06T11:51:32;98592.69;;;10.27;100.00
7888;BME280;3989;48.810;9.208;2022-11-06T11:54:06;98467.59;;;9.65;100.00
7888;BME280;3989;48.810;9.208;2022-11-06T11:56:48;98601.00;;;10.46;100.00
7888;BME280;3989;48.810;9.208;2022-11-06T11:59:17;98571.06;;;10.36;100.00
7888;BME280;3989;48.810;9.208;2022-11-06T12:01:46;98569.88;;;10.39;100.00
7888;BME280;3989;48.810;9.208;2022-11-06T12:04:17;98570.72;;;10.54;100.00
7888;BME280;3989;48.810;9.208;2022-11-06T12:06:49;98524.97;;;10.28;100.00
7888;BME280;3989;48.810;9.208;2022-11-06T12:09:16;98547.34;;;10.41;100.00
7888;BME280;3989;48.810;9.208;2022-11-06T12:11:46;98582.41;;;10.53;100.00
7888;BME280;3989;48.810;9.208;2022-11-06T12:14:18;98515.13;;;10.28;100.00
7888;BME280;3989;48.810;9.208;2022-11-06T12:16:52;98442.09;;;9.85;100.00
7888;BME280;3989;48.810;9.208;2022-11-06T12:19:21;98556.63;;;10.60;100.00
7888;BME280;3989;48.810;9.208;2022-11-06T12:21:52;98556.63;;;10.60;100.00
7888;BME280;3989;48.810;9.208;2022-11-06T12:24:23;98565.47;;;10.61;100.00
7888;BME280;3989;48.810;9.208;2022-11-06T12:26:56;98487.63;;;10.28;100.00
7888;BME280;3989;48.810;9.208;2022-11-06T12:29:29;98551.22;;;10.68;100.00
7888;BME280;3989;48.810;9.208;2022-11-06T12:31:59;98544.66;;;10.71;100.00
7888;BME280;3989;48.810;9.208;2022-11-06T12:34:32;98543.91;;;10.77;100.00
7888;BME280;3989;48.810;9.208;2022-11-06T12:37:15;98536.19;;;10.82;100.00
7888;BME280;3989;48.810;9.208;2022-11-06T12:39:48;98346.50;;;9.68;100.00
7888;BME280;3989;48.810;9.208;2022-11-06T12:42:21;98379.78;;;10.01;100.00
7888;BME280;3989;48.810;9.208;2022-11-06T12:44:51;98527.91;;;10.91;100.00
7888;BME280;3989;48.810;9.208;2022-11-06T12:47:29;98473.09;;;10.60;100.00
7888;BME280;3989;48.810;9.208;2022-11-06T12:50:20;98489.00;;;10.68;100.00
7888;BME280;3989;48.810;9.208;2022-11-06T12:53:15;98524.47;;;10.97;100.00
7888;BME280;3989;48.810;9.208;2022-11-06T12:55:50;98453.69;;;10.51;100.00
7888;BME280;3989;48.810;9.208;2022-11-06T12:58:43;98453.50;;;10.52;100.00
7888;BME280;3989;48.810;9.208;2022-11-06T13:01:19;98330.97;;;10.00;100.00
7888;BME280;3989;48.810;9.208;2022-11-06T13:04:16;98501.13;;;11.21;100.00
7888;BME280;3989;48.810;9.208;2022-11-06T13:09:58;98472.69;;;11.34;100.00
7888;BME280;3989;48.810;9.208;2022-11-06T13:12:32;98460.09;;;11.49;100.00
7888;BME280;3989;48.810;9.208;2022-11-06T13:15:12;98478.72;;;11.64;100.00
7888;BME280;3989;48.810;9.208;2022-11-06T13:17:48;98450.59;;;11.68;100.00
7888;BME280;3989;48.810;9.208;2022-11-06T13:20:24;98479.63;;;11.99;100.00
7888;BME280;3989;48.810;9.208;2022-11-06T13:22:58;98481.50;;;11.98;100.00
7888;BME280;3989;48.810;9.208;2022-11-06T13:25:31;98486.03;;;11.77;100.00
7888;BME280;3989;48.810;9.208;2022-11-06T13:28:07;98400.03;;;11.45;100.00
7888;BME280;3989;48.810;9.208;2022-11-06T13:30:37;98475.88;;;11.93;100.00
7888;BME280;3989;48.810;9.208;2022-11-06T13:33:07;98329.50;;;10.91;100.00
7888;BME280;3989;48.810;9.208;2022-11-06T13:35:41;98376.84;;;11.25;100.00
7888;BME280;3989;48.810;9.208;2022-11-06T13:38:14;98375.97;;;11.18;100.00
7888;BME280;3989;48.810;9.208;2022-11-06T13:40:42;98303.03;;;10.68;100.00